sensor_id;sensor_type;location;lat;lon;timestamp;P1;durP1;ratioP1;P2;durP2;ratioP2
70270;SDS011;57680;54.292;18.598;2024-02-26T00:01:53;16.57;;;7.00;;
70270;SDS011;57680;54.292;18.598;2024-02-26T00:04:19;19.08;;;7.57;;
70270;SDS011;57680;54.292;18.598;2024-02-26T00:06:44;16.47;;;7.60;;
70270;SDS011;57680;54.292;18.598;2024-02-26T00:09:09;13.27;;;5.60;;
70270;SDS011;57680;54.292;18.598;2024-02-26T00:11:35;14.80;;;5.45;;
70270;SDS011;57680;54.292;18.598;2024-02-26T00:14:01;15.07;;;5.78;;
70270;SDS011;57680;54.292;18.598;2024-02-26T00:16:27;13.13;;;5.50;;
70270;SDS011;57680;54.292;18.598;2024-02-26T00:18:52;15.20;;;5.67;;
70270;SDS011;57680;54.292;18.598;2024-02-26T00:21:17;15.13;;;5.77;;
70270;SDS011;57680;54.292;18.598;2024-02-26T00:23:43;14.57;;;5.37;;
70270;SDS011;57680;54.292;18.598;2024-02-26T00:26:08;13.47;;;5.07;;
70270;SDS011;57680;54.292;18.598;2024-02-26T00:28:33;15.32;;;5.85;;
70270;SDS011;57680;54.292;18.598;2024-02-26T00:30:59;15.40;;;6.30;;
70270;SDS011;57680;54.292;18.598;2024-02-26T00:33:24;14.20;;;6.00;;
70270;SDS011;57680;54.292;18.598;2024-02-26T00:35:50;14.33;;;6.43;;
70270;SDS011;57680;54.292;18.598;2024-02-26T00:38:15;17.65;;;5.55;;
70270;SDS011;57680;54.292;18.598;2024-02-26T00:40:41;13.00;;;5.33;;
70270;SDS011;57680;54.292;18.598;2024-02-26T00:43:06;13.57;;;5.23;;
70270;SDS011;57680;54.292;18.598;2024-02-26T00:45:32;18.02;;;5.85;;
70270;SDS011;57680;54.292;18.598;2024-02-26T00:47:58;15.37;;;6.40;;
70270;SDS011;57680;54.292;18.598;2024-02-26T00:50:23;15.88;;;6.38;;
70270;SDS011;57680;54.292;18.598;2024-02-26T00:52:49;10.57;;;4.10;;
70270;SDS011;57680;54.292;18.598;2024-02-26T00:55:14;8.43;;;3.50;;
70270;SDS011;57680;54.292;18.598;2024-02-26T00:57:39;11.47;;;4.20;;
70270;SDS011;57680;54.292;18.598;2024-02-26T01:00:05;9.88;;;4.50;;
70270;SDS011;57680;54.292;18.598;2024-02-26T01:02:31;9.43;;;3.97;;
70270;SDS011;57680;54.292;18.598;2024-02-26T01:04:56;11.57;;;3.83;;
70270;SDS011;57680;54.292;18.598;2024-02-26T01:07:21;10.67;;;4.47;;
70270;SDS011;57680;54.292;18.598;2024-02-26T01:09:47;8.23;;;3.87;;
70270;SDS011;57680;54.292;18.598;2024-02-26T01:12:12;11.83;;;4.73;;
70270;SDS011;57680;54.292;18.598;2024-02-26T01:14:37;12.43;;;4.30;;
70270;SDS011;57680;54.292;18.598;2024-02-26T01:17:02;11.30;;;4.30;;
70270;SDS011;57680;54.292;18.598;2024-02-26T01:19:28;11.87;;;5.07;;
70270;SDS011;57680;54.292;18.598;2024-02-26T01:21:53;13.40;;;5.17;;
70270;SDS011;57680;54.292;18.598;2024-02-26T01:24:18;15.33;;;5.73;;
70270;SDS011;57680;54.292;18.598;2024-02-26T01:26:44;12.67;;;5.53;;
70270;SDS011;57680;54.292;18.598;2024-02-26T01:29:09;13.70;;;5.43;;
70270;SDS011;57680;54.292;18.598;2024-02-26T01:31:34;12.35;;;5.43;;
70270;SDS011;57680;54.292;18.598;2024-02-26T01:34:00;13.23;;;5.13;;
70270;SDS011;57680;54.292;18.598;2024-02-26T01:36:26;15.73;;;5.68;;
70270;SDS011;57680;54.292;18.598;2024-02-26T01:38:51;14.03;;;5.17;;
70270;SDS011;57680;54.292;18.598;2024-02-26T01:41:16;15.87;;;6.10;;
70270;SDS011;57680;54.292;18.598;2024-02-26T01:43:42;15.73;;;5.83;;
70270;SDS011;57680;54.292;18.598;2024-02-26T01:46:09;15.23;;;5.90;;
70270;SDS011;57680;54.292;18.598;2024-02-26T01:48:37;13.90;;;6.22;;
70270;SDS011;57680;54.292;18.598;2024-02-26T01:51:03;15.27;;;6.40;;
70270;SDS011;57680;54.292;18.598;2024-02-26T01:53:28;13.70;;;5.23;;
70270;SDS011;57680;54.292;18.598;2024-02-26T01:55:54;16.10;;;5.82;;
70270;SDS011;57680;54.292;18.598;2024-02-26T01:58:19;12.67;;;5.20;;
70270;SDS011;57680;54.292;18.598;2024-02-26T02:00:45;14.43;;;5.53;;
70270;SDS011;57680;54.292;18.598;2024-02-26T02:03:10;14.18;;;5.47;;
70270;SDS011;57680;54.292;18.598;2024-02-26T02:05:36;16.10;;;6.00;;
70270;SDS011;57680;54.292;18.598;2024-02-26T02:08:02;14.77;;;5.27;;
70270;SDS011;57680;54.292;18.598;2024-02-26T02:10:27;14.97;;;5.40;;
70270;SDS011;57680;54.292;18.598;2024-02-26T02:12:52;11.60;;;4.73;;
70270;SDS011;57680;54.292;18.598;2024-02-26T02:15:18;13.20;;;5.43;;
70270;SDS011;57680;54.292;18.598;2024-02-26T02:17:43;14.00;;;6.10;;
70270;SDS011;57680;54.292;18.598;2024-02-26T02:20:15;13.77;;;5.50;;
70270;SDS011;57680;54.292;18.598;2024-02-26T02:22:41;12.50;;;4.68;;
70270;SDS011;57680;54.292;18.598;2024-02-26T02:25:07;16.60;;;6.13;;
70270;SDS011;57680;54.292;18.598;2024-02-26T02:27:32;18.20;;;6.47;;
70270;SDS011;57680;54.292;18.598;2024-02-26T02:29:58;15.37;;;6.00;;
70270;SDS011;57680;54.292;18.598;2024-02-26T02:32:24;14.83;;;5.93;;
70270;SDS011;57680;54.292;18.598;2024-02-26T02:34:50;16.50;;;6.32;;
70270;SDS011;57680;54.292;18.598;2024-02-26T02:37:15;16.13;;;6.67;;
70270;SDS011;57680;54.292;18.598;2024-02-26T02:39:41;16.57;;;6.70;;
70270;SDS011;57680;54.292;18.598;2024-02-26T02:42:06;16.43;;;6.67;;
70270;SDS011;57680;54.292;18.598;2024-02-26T02:44:31;17.60;;;6.67;;
70270;SDS011;57680;54.292;18.598;2024-02-26T02:46:57;17.23;;;6.97;;
70270;SDS011;57680;54.292;18.598;2024-02-26T02:49:22;17.23;;;7.55;;
70270;SDS011;57680;54.292;18.598;2024-02-26T02:51:48;16.80;;;7.10;;
70270;SDS011;57680;54.292;18.598;2024-02-26T02:54:13;16.37;;;7.37;;
70270;SDS011;57680;54.292;18.598;2024-02-26T02:56:38;19.50;;;8.27;;
70270;SDS011;57680;54.292;18.598;2024-02-26T02:59:04;18.77;;;7.50;;
70270;SDS011;57680;54.292;18.598;2024-02-26T03:01:29;21.83;;;7.57;;
70270;SDS011;57680;54.292;18.598;2024-02-26T03:03:54;19.17;;;7.33;;
70270;SDS011;57680;54.292;18.598;2024-02-26T03:06:20;21.20;;;8.10;;
70270;SDS011;57680;54.292;18.598;2024-02-26T03:08:45;19.40;;;8.07;;
70270;SDS011;57680;54.292;18.598;2024-02-26T03:11:14;21.07;;;7.80;;
70270;SDS011;57680;54.292;18.598;2024-02-26T03:13:39;17.90;;;7.57;;
70270;SDS011;57680;54.292;18.598;2024-02-26T03:16:05;16.20;;;7.10;;
70270;SDS011;57680;54.292;18.598;2024-02-26T03:18:30;11.05;;;4.88;;
70270;SDS011;57680;54.292;18.598;2024-02-26T03:20:56;21.60;;;8.07;;
70270;SDS011;57680;54.292;18.598;2024-02-26T03:23:21;15.53;;;6.77;;
70270;SDS011;57680;54.292;18.598;2024-02-26T03:25:46;17.00;;;6.77;;
70270;SDS011;57680;54.292;18.598;2024-02-26T03:28:12;14.63;;;6.00;;
70270;SDS011;57680;54.292;18.598;2024-02-26T03:30:37;12.23;;;5.97;;
70270;SDS011;57680;54.292;18.598;2024-02-26T03:33:02;21.00;;;7.73;;
70270;SDS011;57680;54.292;18.598;2024-02-26T03:35:27;17.55;;;7.25;;
70270;SDS011;57680;54.292;18.598;2024-02-26T03:37:53;16.97;;;6.87;;
70270;SDS011;57680;54.292;18.598;2024-02-26T03:40:18;20.80;;;7.40;;
70270;SDS011;57680;54.292;18.598;2024-02-26T03:42:43;17.90;;;7.37;;
70270;SDS011;57680;54.292;18.598;2024-02-26T03:45:09;20.47;;;8.20;;
70270;SDS011;57680;54.292;18.598;2024-02-26T03:47:34;20.70;;;8.43;;
70270;SDS011;57680;54.292;18.598;2024-02-26T03:50:00;21.20;;;8.43;;
70270;SDS011;57680;54.292;18.598;2024-02-26T03:52:25;19.40;;;8.03;;
70270;SDS011;57680;54.292;18.598;2024-02-26T03:54:50;19.80;;;8.30;;
70270;SDS011;57680;54.292;18.598;2024-02-26T03:57:16;20.33;;;8.13;;
70270;SDS011;57680;54.292;18.598;2024-02-26T03:59:41;20.13;;;8.07;;
70270;SDS011;57680;54.292;18.598;2024-02-26T04:02:06;21.43;;;8.40;;
70270;SDS011;57680;54.292;18.598;2024-02-26T04:04:35;22.27;;;8.98;;
70270;SDS011;57680;54.292;18.598;2024-02-26T04:07:00;22.17;;;8.67;;
70270;SDS011;57680;54.292;18.598;2024-02-26T04:09:25;23.03;;;9.10;;
70270;SDS011;57680;54.292;18.598;2024-02-26T04:11:51;21.88;;;8.40;;
70270;SDS011;57680;54.292;18.598;2024-02-26T04:14:16;18.77;;;8.30;;
70270;SDS011;57680;54.292;18.598;2024-02-26T04:16:41;19.67;;;8.00;;
70270;SDS011;57680;54.292;18.598;2024-02-26T04:19:07;19.67;;;8.73;;
70270;SDS011;57680;54.292;18.598;2024-02-26T04:21:33;25.67;;;9.37;;
70270;SDS011;57680;54.292;18.598;2024-02-26T04:23:58;21.50;;;9.18;;
70270;SDS011;57680;54.292;18.598;2024-02-26T04:26:24;22.03;;;9.63;;
70270;SDS011;57680;54.292;18.598;2024-02-26T04:28:49;21.07;;;9.00;;
70270;SDS011;57680;54.292;18.598;2024-02-26T04:31:14;24.27;;;9.93;;
70270;SDS011;57680;54.292;18.598;2024-02-26T04:33:40;26.37;;;10.27;;
70270;SDS011;57680;54.292;18.598;2024-02-26T04:36:05;21.67;;;9.67;;
70270;SDS011;57680;54.292;18.598;2024-02-26T04:38:30;22.23;;;9.98;;
70270;SDS011;57680;54.292;18.598;2024-02-26T04:40:56;25.93;;;10.27;;
70270;SDS011;57680;54.292;18.598;2024-02-26T04:43:21;25.17;;;10.70;;
70270;SDS011;57680;54.292;18.598;2024-02-26T04:45:46;26.00;;;11.00;;
70270;SDS011;57680;54.292;18.598;2024-02-26T04:48:12;25.10;;;9.57;;
70270;SDS011;57680;54.292;18.598;2024-02-26T04:50:37;24.23;;;9.50;;
70270;SDS011;57680;54.292;18.598;2024-02-26T04:53:02;29.80;;;10.57;;
70270;SDS011;57680;54.292;18.598;2024-02-26T04:55:28;37.50;;;10.90;;
70270;SDS011;57680;54.292;18.598;2024-02-26T04:57:53;29.73;;;9.07;;
70270;SDS011;57680;54.292;18.598;2024-02-26T05:00:18;26.63;;;9.63;;
70270;SDS011;57680;54.292;18.598;2024-02-26T05:02:44;20.67;;;8.33;;
70270;SDS011;57680;54.292;18.598;2024-02-26T05:05:09;17.13;;;6.40;;
70270;SDS011;57680;54.292;18.598;2024-02-26T05:07:39;20.07;;;8.53;;
70270;SDS011;57680;54.292;18.598;2024-02-26T05:10:05;17.25;;;7.13;;
70270;SDS011;57680;54.292;18.598;2024-02-26T05:12:31;19.15;;;7.07;;
70270;SDS011;57680;54.292;18.598;2024-02-26T05:14:56;18.67;;;7.30;;
70270;SDS011;57680;54.292;18.598;2024-02-26T05:17:21;21.63;;;9.23;;
70270;SDS011;57680;54.292;18.598;2024-02-26T05:19:47;18.53;;;7.67;;
70270;SDS011;57680;54.292;18.598;2024-02-26T05:22:12;25.67;;;9.17;;
70270;SDS011;57680;54.292;18.598;2024-02-26T05:24:37;24.33;;;9.67;;
70270;SDS011;57680;54.292;18.598;2024-02-26T05:27:03;28.45;;;9.82;;
70270;SDS011;57680;54.292;18.598;2024-02-26T05:29:28;26.80;;;10.40;;
70270;SDS011;57680;54.292;18.598;2024-02-26T05:31:54;26.93;;;10.47;;
70270;SDS011;57680;54.292;18.598;2024-02-26T05:34:19;28.27;;;10.23;;
70270;SDS011;57680;54.292;18.598;2024-02-26T05:36:44;31.30;;;10.65;;
70270;SDS011;57680;54.292;18.598;2024-02-26T05:39:10;27.77;;;11.63;;
70270;SDS011;57680;54.292;18.598;2024-02-26T05:41:35;30.90;;;11.43;;
70270;SDS011;57680;54.292;18.598;2024-02-26T05:44:00;27.50;;;11.07;;
70270;SDS011;57680;54.292;18.598;2024-02-26T05:46:26;29.90;;;12.20;;
70270;SDS011;57680;54.292;18.598;2024-02-26T05:48:51;27.63;;;11.00;;
70270;SDS011;57680;54.292;18.598;2024-02-26T05:51:17;28.83;;;11.35;;
70270;SDS011;57680;54.292;18.598;2024-02-26T05:53:43;30.43;;;12.10;;
70270;SDS011;57680;54.292;18.598;2024-02-26T05:56:08;31.50;;;11.90;;
70270;SDS011;57680;54.292;18.598;2024-02-26T05:58:33;32.73;;;12.57;;
70270;SDS011;57680;54.292;18.598;2024-02-26T06:00:59;33.63;;;12.97;;
70270;SDS011;57680;54.292;18.598;2024-02-26T06:03:24;35.33;;;13.37;;
70270;SDS011;57680;54.292;18.598;2024-02-26T06:05:49;37.30;;;13.73;;
70270;SDS011;57680;54.292;18.598;2024-02-26T06:08:15;37.27;;;13.17;;
70270;SDS011;57680;54.292;18.598;2024-02-26T06:10:40;30.95;;;12.15;;
70270;SDS011;57680;54.292;18.598;2024-02-26T06:13:05;32.47;;;12.93;;
70270;SDS011;57680;54.292;18.598;2024-02-26T06:15:31;30.63;;;12.13;;
70270;SDS011;57680;54.292;18.598;2024-02-26T06:17:56;32.97;;;13.10;;
70270;SDS011;57680;54.292;18.598;2024-02-26T06:20:21;38.47;;;14.50;;
70270;SDS011;57680;54.292;18.598;2024-02-26T06:22:47;32.93;;;14.30;;
70270;SDS011;57680;54.292;18.598;2024-02-26T06:25:12;35.83;;;13.80;;
70270;SDS011;57680;54.292;18.598;2024-02-26T06:27:38;34.85;;;13.88;;
70270;SDS011;57680;54.292;18.598;2024-02-26T06:30:03;28.00;;;12.37;;
70270;SDS011;57680;54.292;18.598;2024-02-26T06:32:29;32.17;;;12.57;;
70270;SDS011;57680;54.292;18.598;2024-02-26T06:34:55;31.92;;;12.73;;
70270;SDS011;57680;54.292;18.598;2024-02-26T06:37:20;33.63;;;12.73;;
70270;SDS011;57680;54.292;18.598;2024-02-26T06:39:45;29.37;;;12.70;;
70270;SDS011;57680;54.292;18.598;2024-02-26T06:42:11;29.40;;;12.13;;
70270;SDS011;57680;54.292;18.598;2024-02-26T06:44:40;26.25;;;11.63;;
70270;SDS011;57680;54.292;18.598;2024-02-26T06:47:06;28.33;;;12.02;;
70270;SDS011;57680;54.292;18.598;2024-02-26T06:49:31;28.27;;;11.63;;
70270;SDS011;57680;54.292;18.598;2024-02-26T06:51:57;35.10;;;13.33;;
70270;SDS011;57680;54.292;18.598;2024-02-26T06:54:22;31.27;;;13.00;;
70270;SDS011;57680;54.292;18.598;2024-02-26T06:56:48;29.47;;;11.57;;
70270;SDS011;57680;54.292;18.598;2024-02-26T06:59:13;30.40;;;13.20;;
70270;SDS011;57680;54.292;18.598;2024-02-26T07:01:41;33.95;;;13.88;;
70270;SDS011;57680;54.292;18.598;2024-02-26T07:04:07;39.70;;;16.73;;
70270;SDS011;57680;54.292;18.598;2024-02-26T07:06:32;37.75;;;17.20;;
70270;SDS011;57680;54.292;18.598;2024-02-26T07:08:58;45.63;;;19.27;;
70270;SDS011;57680;54.292;18.598;2024-02-26T07:11:23;46.53;;;18.60;;
70270;SDS011;57680;54.292;18.598;2024-02-26T07:13:48;48.13;;;18.77;;
70270;SDS011;57680;54.292;18.598;2024-02-26T07:16:14;42.50;;;17.47;;
70270;SDS011;57680;54.292;18.598;2024-02-26T07:18:39;38.87;;;17.20;;
70270;SDS011;57680;54.292;18.598;2024-02-26T07:21:04;43.60;;;18.30;;
70270;SDS011;57680;54.292;18.598;2024-02-26T07:23:30;39.85;;;17.73;;
70270;SDS011;57680;54.292;18.598;2024-02-26T07:25:56;40.08;;;18.63;;
70270;SDS011;57680;54.292;18.598;2024-02-26T07:28:22;44.77;;;17.90;;
70270;SDS011;57680;54.292;18.598;2024-02-26T07:30:47;38.70;;;17.73;;
70270;SDS011;57680;54.292;18.598;2024-02-26T07:33:12;42.53;;;18.07;;
70270;SDS011;57680;54.292;18.598;2024-02-26T07:35:38;42.80;;;17.93;;
70270;SDS011;57680;54.292;18.598;2024-02-26T07:38:03;42.73;;;18.20;;
70270;SDS011;57680;54.292;18.598;2024-02-26T07:40:28;41.40;;;18.45;;
70270;SDS011;57680;54.292;18.598;2024-02-26T07:42:54;35.97;;;16.50;;
70270;SDS011;57680;54.292;18.598;2024-02-26T07:45:19;35.77;;;15.37;;
70270;SDS011;57680;54.292;18.598;2024-02-26T07:47:44;36.13;;;16.13;;
70270;SDS011;57680;54.292;18.598;2024-02-26T07:50:10;39.63;;;16.95;;
70270;SDS011;57680;54.292;18.598;2024-02-26T07:52:36;38.37;;;15.93;;
70270;SDS011;57680;54.292;18.598;2024-02-26T07:55:01;39.80;;;16.23;;
70270;SDS011;57680;54.292;18.598;2024-02-26T07:57:26;35.30;;;15.87;;
70270;SDS011;57680;54.292;18.598;2024-02-26T07:59:52;47.83;;;17.40;;
70270;SDS011;57680;54.292;18.598;2024-02-26T08:02:17;48.05;;;16.45;;
70270;SDS011;57680;54.292;18.598;2024-02-26T08:04:42;33.50;;;15.00;;
70270;SDS011;57680;54.292;18.598;2024-02-26T08:07:08;32.73;;;13.70;;
70270;SDS011;57680;54.292;18.598;2024-02-26T08:09:33;29.60;;;12.60;;
70270;SDS011;57680;54.292;18.598;2024-02-26T08:11:58;27.23;;;13.23;;
70270;SDS011;57680;54.292;18.598;2024-02-26T08:14:24;29.07;;;12.63;;
70270;SDS011;57680;54.292;18.598;2024-02-26T08:16:49;30.17;;;13.27;;
70270;SDS011;57680;54.292;18.598;2024-02-26T08:19:14;28.35;;;12.07;;
70270;SDS011;57680;54.292;18.598;2024-02-26T08:21:41;34.20;;;13.60;;
70270;SDS011;57680;54.292;18.598;2024-02-26T08:24:08;35.38;;;15.38;;
70270;SDS011;57680;54.292;18.598;2024-02-26T08:26:34;34.80;;;15.05;;
70270;SDS011;57680;54.292;18.598;2024-02-26T08:28:59;30.07;;;12.77;;
70270;SDS011;57680;54.292;18.598;2024-02-26T08:31:25;30.30;;;12.10;;
70270;SDS011;57680;54.292;18.598;2024-02-26T08:33:50;26.17;;;11.87;;
70270;SDS011;57680;54.292;18.598;2024-02-26T08:36:15;29.20;;;12.33;;
70270;SDS011;57680;54.292;18.598;2024-02-26T08:38:41;25.63;;;11.13;;
70270;SDS011;57680;54.292;18.598;2024-02-26T08:41:06;24.10;;;10.82;;
70270;SDS011;57680;54.292;18.598;2024-02-26T08:43:31;25.33;;;11.50;;
70270;SDS011;57680;54.292;18.598;2024-02-26T08:45:57;23.53;;;11.30;;
70270;SDS011;57680;54.292;18.598;2024-02-26T08:48:22;23.97;;;10.50;;
70270;SDS011;57680;54.292;18.598;2024-02-26T08:50:48;25.17;;;10.73;;
70270;SDS011;57680;54.292;18.598;2024-02-26T08:53:14;27.60;;;11.43;;
70270;SDS011;57680;54.292;18.598;2024-02-26T08:55:39;26.90;;;11.40;;
70270;SDS011;57680;54.292;18.598;2024-02-26T08:58:04;23.87;;;10.93;;
70270;SDS011;57680;54.292;18.598;2024-02-26T09:00:30;27.33;;;11.77;;
70270;SDS011;57680;54.292;18.598;2024-02-26T09:02:55;26.27;;;10.82;;
70270;SDS011;57680;54.292;18.598;2024-02-26T09:05:20;28.07;;;11.67;;
70270;SDS011;57680;54.292;18.598;2024-02-26T09:07:46;23.63;;;10.93;;
70270;SDS011;57680;54.292;18.598;2024-02-26T09:10:12;25.33;;;10.95;;
70270;SDS011;57680;54.292;18.598;2024-02-26T09:12:37;24.60;;;10.53;;
70270;SDS011;57680;54.292;18.598;2024-02-26T09:15:03;22.93;;;10.07;;
70270;SDS011;57680;54.292;18.598;2024-02-26T09:17:29;21.90;;;10.15;;
70270;SDS011;57680;54.292;18.598;2024-02-26T09:19:54;23.73;;;11.20;;
70270;SDS011;57680;54.292;18.598;2024-02-26T09:22:19;24.43;;;10.63;;
70270;SDS011;57680;54.292;18.598;2024-02-26T09:24:45;25.37;;;11.10;;
70270;SDS011;57680;54.292;18.598;2024-02-26T09:27:10;26.03;;;11.67;;
70270;SDS011;57680;54.292;18.598;2024-02-26T09:29:35;26.37;;;10.80;;
70270;SDS011;57680;54.292;18.598;2024-02-26T09:32:01;24.07;;;11.00;;
70270;SDS011;57680;54.292;18.598;2024-02-26T09:34:26;26.13;;;11.57;;
70270;SDS011;57680;54.292;18.598;2024-02-26T09:36:51;25.60;;;10.67;;
70270;SDS011;57680;54.292;18.598;2024-02-26T09:39:17;23.77;;;10.30;;
70270;SDS011;57680;54.292;18.598;2024-02-26T09:41:42;25.15;;;11.40;;
70270;SDS011;57680;54.292;18.598;2024-02-26T09:44:09;27.43;;;13.43;;
70270;SDS011;57680;54.292;18.598;2024-02-26T09:46:35;27.45;;;13.63;;
70270;SDS011;57680;54.292;18.598;2024-02-26T09:49:01;29.10;;;13.73;;
70270;SDS011;57680;54.292;18.598;2024-02-26T09:51:26;40.40;;;15.77;;
70270;SDS011;57680;54.292;18.598;2024-02-26T09:53:52;31.77;;;15.53;;
70270;SDS011;57680;54.292;18.598;2024-02-26T09:56:18;33.58;;;15.55;;
70270;SDS011;57680;54.292;18.598;2024-02-26T09:58:44;35.25;;;15.88;;
70270;SDS011;57680;54.292;18.598;2024-02-26T10:01:28;32.23;;;14.83;;
70270;SDS011;57680;54.292;18.598;2024-02-26T10:03:56;34.08;;;16.52;;
70270;SDS011;57680;54.292;18.598;2024-02-26T10:06:22;32.53;;;14.88;;
70270;SDS011;57680;54.292;18.598;2024-02-26T10:08:51;32.00;;;14.75;;
70270;SDS011;57680;54.292;18.598;2024-02-26T10:11:16;33.20;;;15.50;;
70270;SDS011;57680;54.292;18.598;2024-02-26T10:13:42;30.80;;;13.93;;
70270;SDS011;57680;54.292;18.598;2024-02-26T10:16:07;27.03;;;12.27;;
70270;SDS011;57680;54.292;18.598;2024-02-26T10:18:48;26.60;;;11.87;;
70270;SDS011;57680;54.292;18.598;2024-02-26T10:21:18;28.25;;;14.35;;
70270;SDS011;57680;54.292;18.598;2024-02-26T10:23:44;29.47;;;12.50;;
70270;SDS011;57680;54.292;18.598;2024-02-26T10:26:10;26.23;;;11.63;;
70270;SDS011;57680;54.292;18.598;2024-02-26T10:28:36;26.38;;;12.88;;
70270;SDS011;57680;54.292;18.598;2024-02-26T10:31:02;27.37;;;12.43;;
70270;SDS011;57680;54.292;18.598;2024-02-26T10:33:28;27.27;;;13.18;;
70270;SDS011;57680;54.292;18.598;2024-02-26T10:35:53;27.83;;;12.83;;
70270;SDS011;57680;54.292;18.598;2024-02-26T10:38:19;27.95;;;13.20;;
70270;SDS011;57680;54.292;18.598;2024-02-26T10:40:44;30.23;;;13.53;;
70270;SDS011;57680;54.292;18.598;2024-02-26T10:43:10;27.77;;;13.13;;
70270;SDS011;57680;54.292;18.598;2024-02-26T10:45:35;23.10;;;10.50;;
70270;SDS011;57680;54.292;18.598;2024-02-26T10:48:00;25.87;;;10.90;;
70270;SDS011;57680;54.292;18.598;2024-02-26T10:50:25;22.73;;;10.53;;
70270;SDS011;57680;54.292;18.598;2024-02-26T10:52:51;22.17;;;10.80;;
70270;SDS011;57680;54.292;18.598;2024-02-26T10:55:19;21.42;;;10.25;;
70270;SDS011;57680;54.292;18.598;2024-02-26T10:57:47;23.65;;;11.13;;
70270;SDS011;57680;54.292;18.598;2024-02-26T11:00:13;24.00;;;10.57;;
70270;SDS011;57680;54.292;18.598;2024-02-26T11:02:40;25.02;;;11.23;;
70270;SDS011;57680;54.292;18.598;2024-02-26T11:05:06;23.10;;;11.63;;
70270;SDS011;57680;54.292;18.598;2024-02-26T11:07:33;25.95;;;12.30;;
70270;SDS011;57680;54.292;18.598;2024-02-26T11:09:59;24.67;;;11.82;;
70270;SDS011;57680;54.292;18.598;2024-02-26T11:12:25;29.03;;;13.37;;
70270;SDS011;57680;54.292;18.598;2024-02-26T11:14:52;25.92;;;12.60;;
70270;SDS011;57680;54.292;18.598;2024-02-26T11:17:18;27.47;;;12.00;;
70270;SDS011;57680;54.292;18.598;2024-02-26T11:19:44;25.38;;;11.68;;
70270;SDS011;57680;54.292;18.598;2024-02-26T11:22:11;24.65;;;10.88;;
70270;SDS011;57680;54.292;18.598;2024-02-26T11:24:36;28.97;;;12.53;;
70270;SDS011;57680;54.292;18.598;2024-02-26T11:27:02;30.07;;;12.83;;
70270;SDS011;57680;54.292;18.598;2024-02-26T11:29:41;26.77;;;11.35;;
70270;SDS011;57680;54.292;18.598;2024-02-26T11:32:11;24.63;;;11.25;;
70270;SDS011;57680;54.292;18.598;2024-02-26T11:34:37;27.30;;;12.40;;
70270;SDS011;57680;54.292;18.598;2024-02-26T11:37:13;24.65;;;11.52;;
70270;SDS011;57680;54.292;18.598;2024-02-26T11:39:40;24.90;;;11.23;;
70270;SDS011;57680;54.292;18.598;2024-02-26T11:42:06;26.57;;;11.60;;
70270;SDS011;57680;54.292;18.598;2024-02-26T11:44:32;27.42;;;12.48;;
70270;SDS011;57680;54.292;18.598;2024-02-26T11:46:58;26.53;;;12.20;;
70270;SDS011;57680;54.292;18.598;2024-02-26T11:49:30;27.33;;;12.40;;
70270;SDS011;57680;54.292;18.598;2024-02-26T11:51:57;25.80;;;11.77;;
70270;SDS011;57680;54.292;18.598;2024-02-26T11:57:26;25.52;;;12.05;;
70270;SDS011;57680;54.292;18.598;2024-02-26T11:59:55;25.20;;;11.67;;
70270;SDS011;57680;54.292;18.598;2024-02-26T12:07:37;23.60;;;11.23;;
70270;SDS011;57680;54.292;18.598;2024-02-26T12:10:13;24.20;;;11.73;;
70270;SDS011;57680;54.292;18.598;2024-02-26T12:13:00;28.60;;;12.20;;
70270;SDS011;57680;54.292;18.598;2024-02-26T12:16:09;25.88;;;11.57;;
70270;SDS011;57680;54.292;18.598;2024-02-26T12:18:34;27.73;;;12.13;;
70270;SDS011;57680;54.292;18.598;2024-02-26T12:22:58;26.17;;;11.63;;
70270;SDS011;57680;54.292;18.598;2024-02-26T12:25:24;24.37;;;11.43;;
70270;SDS011;57680;54.292;18.598;2024-02-26T12:27:51;30.60;;;12.82;;
70270;SDS011;57680;54.292;18.598;2024-02-26T12:30:16;27.57;;;11.80;;
70270;SDS011;57680;54.292;18.598;2024-02-26T12:32:42;27.47;;;12.00;;
70270;SDS011;57680;54.292;18.598;2024-02-26T12:35:07;29.55;;;12.73;;
70270;SDS011;57680;54.292;18.598;2024-02-26T12:37:33;27.00;;;12.00;;
70270;SDS011;57680;54.292;18.598;2024-02-26T12:39:59;28.63;;;13.25;;
70270;SDS011;57680;54.292;18.598;2024-02-26T12:42:24;30.17;;;12.63;;
70270;SDS011;57680;54.292;18.598;2024-02-26T12:44:49;33.50;;;13.87;;
70270;SDS011;57680;54.292;18.598;2024-02-26T12:47:15;34.43;;;14.77;;
70270;SDS011;57680;54.292;18.598;2024-02-26T12:49:41;31.25;;;14.57;;
70270;SDS011;57680;54.292;18.598;2024-02-26T12:52:06;33.60;;;15.03;;
70270;SDS011;57680;54.292;18.598;2024-02-26T12:54:32;32.13;;;14.53;;
70270;SDS011;57680;54.292;18.598;2024-02-26T12:56:59;34.30;;;14.55;;
70270;SDS011;57680;54.292;18.598;2024-02-26T12:59:26;36.45;;;15.63;;
70270;SDS011;57680;54.292;18.598;2024-02-26T13:01:52;37.00;;;15.33;;
70270;SDS011;57680;54.292;18.598;2024-02-26T13:04:17;35.03;;;15.57;;
70270;SDS011;57680;54.292;18.598;2024-02-26T13:06:43;37.67;;;16.63;;
70270;SDS011;57680;54.292;18.598;2024-02-26T13:09:12;40.22;;;17.33;;
70270;SDS011;57680;54.292;18.598;2024-02-26T13:11:41;36.35;;;16.85;;
70270;SDS011;57680;54.292;18.598;2024-02-26T13:14:06;38.27;;;17.10;;
70270;SDS011;57680;54.292;18.598;2024-02-26T13:16:32;37.53;;;16.90;;
70270;SDS011;57680;54.292;18.598;2024-02-26T13:18:57;39.13;;;17.13;;
70270;SDS011;57680;54.292;18.598;2024-02-26T13:21:33;36.73;;;16.43;;
70270;SDS011;57680;54.292;18.598;2024-02-26T13:23:59;41.05;;;18.08;;
70270;SDS011;57680;54.292;18.598;2024-02-26T13:26:24;40.87;;;17.13;;
70270;SDS011;57680;54.292;18.598;2024-02-26T13:28:59;36.63;;;16.03;;
70270;SDS011;57680;54.292;18.598;2024-02-26T13:31:25;40.70;;;16.73;;
70270;SDS011;57680;54.292;18.598;2024-02-26T13:33:51;42.13;;;18.10;;
70270;SDS011;57680;54.292;18.598;2024-02-26T13:36:16;43.50;;;18.67;;
70270;SDS011;57680;54.292;18.598;2024-02-26T13:38:41;42.10;;;18.03;;
70270;SDS011;57680;54.292;18.598;2024-02-26T13:41:19;41.00;;;17.92;;
70270;SDS011;57680;54.292;18.598;2024-02-26T13:43:44;44.13;;;18.17;;
70270;SDS011;57680;54.292;18.598;2024-02-26T13:46:10;41.60;;;17.63;;
70270;SDS011;57680;54.292;18.598;2024-02-26T13:48:35;43.77;;;17.63;;
70270;SDS011;57680;54.292;18.598;2024-02-26T13:51:01;44.57;;;18.37;;
70270;SDS011;57680;54.292;18.598;2024-02-26T13:53:26;47.87;;;18.47;;
70270;SDS011;57680;54.292;18.598;2024-02-26T13:55:51;51.23;;;18.93;;
70270;SDS011;57680;54.292;18.598;2024-02-26T13:58:17;51.10;;;18.50;;
70270;SDS011;57680;54.292;18.598;2024-02-26T14:00:42;50.28;;;18.88;;
70270;SDS011;57680;54.292;18.598;2024-02-26T14:03:07;44.50;;;18.63;;
70270;SDS011;57680;54.292;18.598;2024-02-26T14:05:33;46.60;;;18.83;;
70270;SDS011;57680;54.292;18.598;2024-02-26T14:07:58;46.03;;;18.83;;
70270;SDS011;57680;54.292;18.598;2024-02-26T14:10:23;53.03;;;19.43;;
70270;SDS011;57680;54.292;18.598;2024-02-26T14:12:49;52.90;;;20.73;;
70270;SDS011;57680;54.292;18.598;2024-02-26T14:15:14;51.27;;;20.40;;
70270;SDS011;57680;54.292;18.598;2024-02-26T14:17:39;53.20;;;20.85;;